createdAt,value
2018-03-25T00:00:56.208Z,66.50
2018-03-25T00:03:23.774Z,66.40
2018-03-25T00:05:51.368Z,66.50
2018-03-25T00:08:18.890Z,66.40
2018-03-25T00:10:46.456Z,66.20
2018-03-25T00:13:14.134Z,66.20
2018-03-25T00:15:41.726Z,66.40
2018-03-25T00:18:09.370Z,66.50
2018-03-25T00:20:36.960Z,66.70
2018-03-25T00:23:04.696Z,67.70
2018-03-25T00:25:32.465Z,66.70
2018-03-25T00:28:00.810Z,66.00
2018-03-25T00:30:28.390Z,66.50
2018-03-25T00:32:56.052Z,66.60
2018-03-25T00:35:23.616Z,66.80
2018-03-25T00:37:51.184Z,66.90
2018-03-25T00:40:18.756Z,66.90
2018-03-25T00:42:46.337Z,66.60
2018-03-25T00:45:14.784Z,66.90
2018-03-25T00:47:42.350Z,66.90
2018-03-25T00:50:10.686Z,67.20
2018-03-25T00:52:38.431Z,67.10
2018-03-25T00:55:06.091Z,67.00
2018-03-25T00:57:33.814Z,67.40
2018-03-25T01:00:01.392Z,67.70
2018-03-25T01:02:28.945Z,67.90
2018-03-25T01:04:56.630Z,68.00
2018-03-25T01:07:25.036Z,69.20
2018-03-25T01:09:52.585Z,68.70
2018-03-25T01:12:20.357Z,68.70
2018-03-25T01:14:47.890Z,69.00
2018-03-25T01:17:15.623Z,69.30
2018-03-25T01:19:43.234Z,69.50
2018-03-25T01:22:10.849Z,69.60
2018-03-25T01:24:38.446Z,69.80
2018-03-25T01:27:06.811Z,70.20
2018-03-25T01:29:34.372Z,70.20
2018-03-25T01:32:03.475Z,70.40
2018-03-25T01:34:31.821Z,70.60
2018-03-25T01:36:59.409Z,70.60
2018-03-25T01:39:27.045Z,70.60
2018-03-25T01:41:54.627Z,70.80
2018-03-25T01:44:22.199Z,70.90
2018-03-25T01:46:49.783Z,71.10
2018-03-25T01:49:17.451Z,71.00
2018-03-25T01:51:45.205Z,70.90
2018-03-25T01:54:12.791Z,70.80
2018-03-25T01:56:40.355Z,70.80
2018-03-25T01:59:07.932Z,70.70
2018-03-25T02:01:35.501Z,70.60
2018-03-25T02:04:03.153Z,70.70
2018-03-25T02:06:30.738Z,70.80
2018-03-25T02:08:58.305Z,70.80
2018-03-25T02:11:25.896Z,70.90
2018-03-25T02:13:53.589Z,70.80
2018-03-25T02:16:22.031Z,71.20
2018-03-25T02:18:49.693Z,71.20
2018-03-25T02:21:17.248Z,71.50
2018-03-25T02:23:44.913Z,71.50
2018-03-25T02:26:13.243Z,71.80
2018-03-25T02:28:40.806Z,71.70
2018-03-25T02:31:08.555Z,72.00
2018-03-25T02:33:36.135Z,71.90
2018-03-25T02:36:04.499Z,71.80
2018-03-25T02:38:32.043Z,71.60
2018-03-25T02:40:59.587Z,71.60
2018-03-25T02:43:27.243Z,72.40
2018-03-25T02:45:55.584Z,71.90
2018-03-25T02:48:23.905Z,72.00
2018-03-25T02:50:51.631Z,71.90
2018-03-25T02:53:19.207Z,72.10
2018-03-25T02:55:46.827Z,72.10
2018-03-25T02:58:14.569Z,72.10
2018-03-25T03:00:42.887Z,72.60
2018-03-25T03:03:10.463Z,72.50
2018-03-25T03:05:38.043Z,72.50
2018-03-25T03:08:05.584Z,72.50
2018-03-25T03:10:33.997Z,72.40
2018-03-25T03:13:01.542Z,72.30
2018-03-25T03:15:29.189Z,72.70
2018-03-25T03:17:56.751Z,72.80
2018-03-25T03:20:24.340Z,73.10
2018-03-25T03:22:51.904Z,72.90
2018-03-25T03:25:19.509Z,73.10
2018-03-25T03:27:47.291Z,73.20
2018-03-25T03:30:14.892Z,73.20
2018-03-25T03:32:43.270Z,73.30
2018-03-25T03:35:11.596Z,73.30
2018-03-25T03:37:39.177Z,73.20
2018-03-25T03:40:06.753Z,73.20
2018-03-25T03:42:35.087Z,73.20
2018-03-25T03:45:02.691Z,73.10
2018-03-25T03:47:30.272Z,73.00
2018-03-25T03:49:58.793Z,73.20
2018-03-25T03:52:26.445Z,73.10
2018-03-25T03:54:54.011Z,73.20
2018-03-25T03:57:21.607Z,73.30
2018-03-25T03:59:49.188Z,73.20
2018-03-25T04:02:17.753Z,73.20
2018-03-25T04:04:45.317Z,73.30
2018-03-25T04:07:12.937Z,73.50
2018-03-25T04:09:41.274Z,73.50
2018-03-25T04:12:08.841Z,73.50
2018-03-25T04:14:36.550Z,73.40
2018-03-25T04:17:04.897Z,73.60
2018-03-25T04:19:32.571Z,73.50
2018-03-25T04:22:00.165Z,73.60
2018-03-25T04:24:27.784Z,73.50
2018-03-25T04:26:55.357Z,73.60
2018-03-25T04:29:22.924Z,73.70
2018-03-25T04:31:50.560Z,73.70
2018-03-25T04:34:18.208Z,73.80
2018-03-25T04:36:46.665Z,73.80
2018-03-25T04:39:15.020Z,73.80
2018-03-25T04:41:42.615Z,73.80
2018-03-25T04:44:10.190Z,73.80
2018-03-25T04:46:38.556Z,74.00
2018-03-25T04:49:06.884Z,74.10
2018-03-25T04:51:34.474Z,74.10
2018-03-25T04:54:02.092Z,74.90
2018-03-25T04:56:29.914Z,74.80
2018-03-25T04:58:57.576Z,74.20
2018-03-25T05:01:25.230Z,74.20
2018-03-25T05:03:52.816Z,74.20
2018-03-25T05:06:20.400Z,74.10
2018-03-25T05:08:48.064Z,74.20
2018-03-25T05:11:15.680Z,74.40
2018-03-25T05:13:44.740Z,74.30
2018-03-25T05:16:13.098Z,74.30
2018-03-25T05:18:40.718Z,74.30
2018-03-25T05:21:08.300Z,74.30
2018-03-25T05:23:35.880Z,74.10
2018-03-25T05:26:04.663Z,73.90
2018-03-25T05:28:32.362Z,73.90
2018-03-25T05:30:59.989Z,73.80
2018-03-25T05:33:27.588Z,73.80
2018-03-25T05:35:55.387Z,73.80
2018-03-25T05:38:22.958Z,73.90
2018-03-25T05:40:50.535Z,73.80
2018-03-25T05:43:18.121Z,73.70
2018-03-25T05:45:45.807Z,73.60
2018-03-25T05:48:13.500Z,73.60
2018-03-25T05:50:41.150Z,73.40
2018-03-25T05:53:08.769Z,73.40
2018-03-25T05:55:37.295Z,73.30
2018-03-25T05:58:04.908Z,73.40
2018-03-25T06:00:33.264Z,73.50
2018-03-25T06:03:00.858Z,73.30
2018-03-25T06:05:29.212Z,72.70
2018-03-25T06:07:57.547Z,72.60
2018-03-25T06:10:25.155Z,72.50
2018-03-25T06:12:53.518Z,72.20
2018-03-25T06:15:21.238Z,72.10
2018-03-25T06:17:48.858Z,71.90
2018-03-25T06:20:16.536Z,71.60
2018-03-25T06:22:44.897Z,71.30
2018-03-25T06:25:12.798Z,71.30
2018-03-25T06:27:40.389Z,71.20
2018-03-25T06:30:07.965Z,71.00
2018-03-25T06:32:35.567Z,70.80
2018-03-25T06:35:03.915Z,70.70
2018-03-25T06:37:31.487Z,70.70
2018-03-25T06:39:59.119Z,70.70
2018-03-25T06:42:26.801Z,70.80
2018-03-25T06:44:54.439Z,71.00
2018-03-25T06:47:22.019Z,71.00
2018-03-25T06:49:49.667Z,71.00
2018-03-25T06:52:17.343Z,71.00
2018-03-25T06:54:44.957Z,71.10
2018-03-25T06:57:12.628Z,71.20
2018-03-25T06:59:40.181Z,71.00
2018-03-25T07:02:07.792Z,70.90
2018-03-25T07:04:36.283Z,71.00
2018-03-25T07:07:03.841Z,70.90
2018-03-25T07:09:31.472Z,71.00
2018-03-25T07:11:59.139Z,70.70
2018-03-25T07:14:27.071Z,70.40
2018-03-25T07:16:54.671Z,70.00
2018-03-25T07:19:22.978Z,69.80
2018-03-25T07:21:50.695Z,69.00
2018-03-25T07:24:18.263Z,68.50
2018-03-25T07:26:45.837Z,68.60
2018-03-25T07:29:13.421Z,68.70
2018-03-25T07:31:41.861Z,68.70
2018-03-25T07:34:10.531Z,68.00
2018-03-25T07:36:38.285Z,67.90
2018-03-25T07:39:05.914Z,67.40
2018-03-25T07:41:34.253Z,67.30
2018-03-25T07:44:01.886Z,67.20
2018-03-25T07:46:29.469Z,67.20
2018-03-25T07:48:57.110Z,67.10
2018-03-25T07:51:24.680Z,66.80
2018-03-25T07:53:52.256Z,66.60
2018-03-25T07:56:19.820Z,66.50
2018-03-25T07:58:47.501Z,66.60
2018-03-25T08:01:16.347Z,66.30
2018-03-25T08:03:43.982Z,66.00
2018-03-25T08:06:11.539Z,65.70
2018-03-25T08:08:40.104Z,65.10
2018-03-25T08:11:07.688Z,65.10
2018-03-25T08:13:36.368Z,64.50
2018-03-25T08:16:07.707Z,64.40
2018-03-25T08:18:35.319Z,64.40
2018-03-25T08:21:03.038Z,64.10
2018-03-25T08:23:30.607Z,63.70
2018-03-25T08:25:58.196Z,63.20
2018-03-25T08:28:27.284Z,62.50
2018-03-25T08:30:54.916Z,62.50
2018-03-25T08:33:24.452Z,61.70
2018-03-25T08:35:52.512Z,61.60
2018-03-25T08:38:20.134Z,61.10
2018-03-25T08:40:47.786Z,60.50
2018-03-25T08:43:15.510Z,60.10
2018-03-25T08:45:43.112Z,60.00
2018-03-25T08:48:23.074Z,60.00
2018-03-25T08:50:50.618Z,59.90
2018-03-25T08:53:18.292Z,59.50
2018-03-25T08:55:46.063Z,58.90
2018-03-25T08:58:13.711Z,58.60
2018-03-25T09:00:41.370Z,58.40
2018-03-25T09:03:09.099Z,58.30
2018-03-25T09:05:37.436Z,57.80
2018-03-25T09:08:05.063Z,57.80
2018-03-25T09:10:32.669Z,57.60
2018-03-25T09:13:00.302Z,57.30
2018-03-25T09:15:27.915Z,57.00
2018-03-25T09:17:56.287Z,57.00
2018-03-25T09:20:25.488Z,56.30
2018-03-25T09:22:53.999Z,56.00
2018-03-25T09:25:21.682Z,55.90
2018-03-25T09:27:49.290Z,55.60
2018-03-25T09:30:17.733Z,55.40
2018-03-25T09:32:45.296Z,55.30
2018-03-25T09:35:12.891Z,54.90
2018-03-25T09:37:41.321Z,54.40
2018-03-25T09:40:08.931Z,54.30
2018-03-25T09:42:37.589Z,54.20
2018-03-25T09:45:05.430Z,53.90
2018-03-25T09:47:33.762Z,53.70
2018-03-25T09:50:01.392Z,53.60
2018-03-25T09:52:29.031Z,53.50
2018-03-25T09:54:57.361Z,53.10
2018-03-25T09:57:24.968Z,53.10
2018-03-25T09:59:52.606Z,52.90
2018-03-25T10:02:25.982Z,53.00
2018-03-25T10:04:53.603Z,53.00
2018-03-25T10:07:21.217Z,53.00
2018-03-25T10:09:49.739Z,52.70
2018-03-25T10:12:17.313Z,52.60
2018-03-25T10:14:44.873Z,52.40
2018-03-25T10:17:12.541Z,52.40
2018-03-25T10:19:40.136Z,52.10
2018-03-25T10:22:07.781Z,51.50
2018-03-25T10:24:35.375Z,51.10
2018-03-25T10:27:03.109Z,51.00
2018-03-25T10:29:31.493Z,50.70
2018-03-25T10:31:59.914Z,50.50
2018-03-25T10:34:27.501Z,50.40
2018-03-25T10:36:55.070Z,50.20
2018-03-25T10:39:22.645Z,49.60
2018-03-25T10:41:50.213Z,49.50
2018-03-25T10:44:17.797Z,49.10
2018-03-25T10:46:46.129Z,48.90
2018-03-25T10:49:13.671Z,48.80
2018-03-25T10:51:41.262Z,48.60
2018-03-25T10:54:09.500Z,48.10
2018-03-25T10:56:37.907Z,47.90
2018-03-25T10:59:05.569Z,47.90
2018-03-25T11:01:33.149Z,47.80
2018-03-25T11:04:00.721Z,47.20
2018-03-25T11:06:28.303Z,46.80
2018-03-25T11:08:56.027Z,47.00
2018-03-25T11:11:23.620Z,46.80
2018-03-25T11:13:51.286Z,46.50
2018-03-25T11:16:18.849Z,46.30
2018-03-25T11:18:46.757Z,46.20
2018-03-25T11:21:14.293Z,46.90
2018-03-25T11:23:42.618Z,46.30
2018-03-25T11:26:10.209Z,45.50
2018-03-25T11:28:38.547Z,44.90
2018-03-25T11:31:06.142Z,44.30
2018-03-25T11:33:33.695Z,44.10
2018-03-25T11:36:01.260Z,44.10
2018-03-25T11:38:28.821Z,43.70
2018-03-25T11:40:56.362Z,43.50
2018-03-25T11:43:23.924Z,43.30
2018-03-25T11:45:51.493Z,43.00
2018-03-25T11:48:19.581Z,42.70
2018-03-25T11:50:47.173Z,42.50
2018-03-25T11:53:14.778Z,41.80
2018-03-25T11:55:42.296Z,41.60
2018-03-25T11:58:09.853Z,40.20
2018-03-25T12:00:38.182Z,38.80
2018-03-25T12:03:05.759Z,38.70
2018-03-25T12:05:33.342Z,38.20
2018-03-25T12:08:01.756Z,37.30
2018-03-25T12:10:30.101Z,37.00
2018-03-25T12:12:57.692Z,37.00
2018-03-25T12:15:26.020Z,34.80
2018-03-25T12:17:53.598Z,34.70
2018-03-25T12:20:21.164Z,34.60
2018-03-25T12:22:48.779Z,34.50
2018-03-25T12:25:16.401Z,34.70
2018-03-25T12:27:44.087Z,35.20
2018-03-25T12:30:11.642Z,34.80
2018-03-25T12:32:39.226Z,34.50
2018-03-25T12:35:06.790Z,34.40
2018-03-25T12:37:34.407Z,34.00
2018-03-25T12:40:02.774Z,34.30
2018-03-25T12:42:31.096Z,34.50
2018-03-25T12:44:58.682Z,33.90
2018-03-25T12:47:26.272Z,33.80
2018-03-25T12:49:53.908Z,33.40
2018-03-25T12:52:21.527Z,33.30
2018-03-25T12:54:49.939Z,32.80
2018-03-25T12:57:17.518Z,32.70
2018-03-25T12:59:45.131Z,33.20
2018-03-25T13:02:12.738Z,33.90
2018-03-25T13:04:40.323Z,34.00
2018-03-25T13:07:08.664Z,33.40
2018-03-25T13:09:36.212Z,33.40
2018-03-25T13:12:03.932Z,32.80
2018-03-25T13:14:32.277Z,33.20
2018-03-25T13:16:59.906Z,33.20
2018-03-25T13:19:28.239Z,33.80
2018-03-25T13:21:55.807Z,33.60
2018-03-25T13:24:23.416Z,33.90
2018-03-25T13:26:51.775Z,34.30
2018-03-25T13:29:19.513Z,34.30
2018-03-25T13:31:47.036Z,34.50
2018-03-25T13:34:15.367Z,34.20
2018-03-25T13:36:42.928Z,34.20
2018-03-25T13:39:10.653Z,33.80
2018-03-25T13:41:38.202Z,33.60
2018-03-25T13:44:05.783Z,34.80
2018-03-25T13:46:33.375Z,35.10
2018-03-25T13:49:01.078Z,35.10
2018-03-25T13:51:29.430Z,36.00
2018-03-25T13:53:57.151Z,35.40
2018-03-25T13:56:24.659Z,35.50
2018-03-25T13:58:52.230Z,35.60
2018-03-25T14:01:20.562Z,35.50
2018-03-25T14:03:48.871Z,35.50
2018-03-25T14:06:16.507Z,35.20
2018-03-25T14:08:44.879Z,35.30
2018-03-25T14:11:13.215Z,35.20
2018-03-25T14:13:40.832Z,34.90
2018-03-25T14:18:43.180Z,35.70
2018-03-25T14:21:10.717Z,36.00
2018-03-25T14:23:38.301Z,36.20
2018-03-25T14:26:05.916Z,36.20
2018-03-25T14:28:33.493Z,36.20
2018-03-25T14:31:01.077Z,36.20
2018-03-25T14:33:28.663Z,36.20
2018-03-25T14:35:56.244Z,36.30
2018-03-25T14:38:24.592Z,36.50
2018-03-25T14:40:53.012Z,36.50
2018-03-25T14:43:20.555Z,36.50
2018-03-25T14:45:48.149Z,36.50
2018-03-25T14:48:16.563Z,36.30
2018-03-25T14:50:44.166Z,36.20
2018-03-25T14:53:11.703Z,36.10
2018-03-25T14:55:39.281Z,36.00
2018-03-25T14:58:06.906Z,35.60
2018-03-25T15:00:34.604Z,35.40
2018-03-25T15:03:03.101Z,35.30
2018-03-25T15:05:30.772Z,35.30
2018-03-25T15:07:58.390Z,35.40
2018-03-25T15:10:25.941Z,35.50
2018-03-25T15:12:54.389Z,35.40
2018-03-25T15:15:21.950Z,35.40
2018-03-25T15:17:49.559Z,35.20
2018-03-25T15:20:18.016Z,35.90
2018-03-25T15:22:45.642Z,35.30
2018-03-25T15:25:13.966Z,35.50
2018-03-25T15:27:41.529Z,35.40
2018-03-25T15:30:09.187Z,35.30
2018-03-25T15:32:36.987Z,35.30
2018-03-25T15:35:04.560Z,35.40
2018-03-25T15:37:32.148Z,35.60
2018-03-25T15:39:59.836Z,35.50
2018-03-25T15:42:27.390Z,35.30
2018-03-25T15:44:54.965Z,35.00
2018-03-25T15:47:22.546Z,34.50
2018-03-25T15:49:50.221Z,34.20
2018-03-25T15:52:17.886Z,33.80
2018-03-25T15:54:45.491Z,33.70
2018-03-25T15:57:13.108Z,33.80
2018-03-25T15:59:40.696Z,33.90
2018-03-25T16:02:08.390Z,33.80
2018-03-25T16:04:36.836Z,33.40
2018-03-25T16:07:04.458Z,33.10
2018-03-25T16:09:32.044Z,31.70
2018-03-25T16:11:59.639Z,30.20
2018-03-25T16:14:27.183Z,30.10
2018-03-25T16:16:55.534Z,32.00
2018-03-25T16:19:23.103Z,31.50
2018-03-25T16:21:51.527Z,33.60
2018-03-25T16:24:19.120Z,33.60
2018-03-25T16:26:46.701Z,34.40
2018-03-25T16:29:15.102Z,35.90
2018-03-25T16:31:42.696Z,35.90
2018-03-25T16:34:10.321Z,37.20
2018-03-25T16:36:37.991Z,38.10
2018-03-25T16:39:05.564Z,38.70
2018-03-25T16:41:33.890Z,39.20
2018-03-25T16:44:01.504Z,39.20
2018-03-25T16:46:29.059Z,39.20
2018-03-25T16:48:56.603Z,39.90
2018-03-25T16:51:24.949Z,39.70
2018-03-25T16:53:52.541Z,39.70
2018-03-25T16:56:20.916Z,41.00
2018-03-25T16:58:48.597Z,41.00
2018-03-25T17:01:16.966Z,41.20
2018-03-25T17:03:45.446Z,41.20
2018-03-25T17:06:14.174Z,41.40
2018-03-25T17:08:41.844Z,41.30
2018-03-25T17:11:09.413Z,41.40
2018-03-25T17:13:36.986Z,41.70
2018-03-25T17:16:04.578Z,41.70
2018-03-25T17:18:32.370Z,41.90
2018-03-25T17:21:00.965Z,41.80
2018-03-25T17:23:29.457Z,41.70
2018-03-25T17:25:57.057Z,41.70
2018-03-25T17:28:26.597Z,41.80
2018-03-25T17:30:54.941Z,42.60
2018-03-25T17:33:22.529Z,42.20
2018-03-25T17:35:50.127Z,42.20
2018-03-25T17:38:18.233Z,42.50
2018-03-25T17:40:45.882Z,42.70
2018-03-25T17:43:13.471Z,43.10
2018-03-25T17:45:41.074Z,43.30
2018-03-25T17:48:08.727Z,43.60
2018-03-25T17:50:37.118Z,43.90
2018-03-25T17:53:05.448Z,44.00
2018-03-25T17:55:33.111Z,44.00
2018-03-25T17:58:02.071Z,44.40
2018-03-25T18:00:29.645Z,44.80
2018-03-25T18:02:58.384Z,45.50
2018-03-25T18:05:26.045Z,45.50
2018-03-25T18:07:53.636Z,46.20
2018-03-25T18:10:22.053Z,47.80
2018-03-25T18:12:49.591Z,47.80
2018-03-25T18:15:17.136Z,48.70
2018-03-25T18:17:45.453Z,49.40
2018-03-25T18:20:13.047Z,49.40
2018-03-25T18:22:40.675Z,49.70
2018-03-25T18:25:08.275Z,50.40
2018-03-25T18:27:35.916Z,51.20
2018-03-25T18:30:04.292Z,52.20
2018-03-25T18:32:32.624Z,52.60
2018-03-25T18:35:00.175Z,52.50
2018-03-25T18:37:27.758Z,52.90
2018-03-25T18:39:56.203Z,53.80
2018-03-25T18:42:23.781Z,54.30
2018-03-25T18:44:51.335Z,54.20
2018-03-25T18:47:18.881Z,54.90
2018-03-25T18:49:46.502Z,55.50
2018-03-25T18:52:14.109Z,56.00
2018-03-25T18:54:41.686Z,56.40
2018-03-25T18:57:10.054Z,57.40
2018-03-25T18:59:37.642Z,57.30
2018-03-25T19:02:05.243Z,57.70
2018-03-25T19:04:33.592Z,57.70
2018-03-25T19:07:01.148Z,57.70
2018-03-25T19:09:28.728Z,57.40
2018-03-25T19:11:56.293Z,57.20
2018-03-25T19:14:23.852Z,57.60
2018-03-25T19:16:51.456Z,57.80
2018-03-25T19:19:19.777Z,58.40
2018-03-25T19:21:47.436Z,58.30
2018-03-25T19:24:15.038Z,58.60
2018-03-25T19:26:42.632Z,58.90
2018-03-25T19:29:10.190Z,59.20
2018-03-25T19:31:37.761Z,59.60
2018-03-25T19:34:05.317Z,59.90
2018-03-25T19:36:32.942Z,60.40
2018-03-25T19:39:00.532Z,60.50
2018-03-25T19:41:28.947Z,59.30
2018-03-25T19:43:56.557Z,59.20
2018-03-25T19:46:24.158Z,58.90
2018-03-25T19:48:51.763Z,59.20
2018-03-25T19:51:20.096Z,60.40
2018-03-25T19:53:47.718Z,60.40
2018-03-25T19:56:16.130Z,61.00
2018-03-25T19:58:44.511Z,60.20
2018-03-25T20:01:12.171Z,60.20
2018-03-25T20:03:39.796Z,59.70
2018-03-25T20:06:08.178Z,60.00
2018-03-25T20:08:36.764Z,60.50
2018-03-25T20:11:05.120Z,59.80
2018-03-25T20:13:32.719Z,59.70
2018-03-25T20:16:00.301Z,59.60
2018-03-25T20:18:28.132Z,59.80
2018-03-25T20:20:55.774Z,60.20
2018-03-25T20:23:23.337Z,60.70
2018-03-25T20:25:51.064Z,61.20
2018-03-25T20:28:18.706Z,61.60
2018-03-25T20:30:46.282Z,62.10
2018-03-25T20:33:13.896Z,62.20
2018-03-25T20:35:41.491Z,62.20
2018-03-25T20:38:09.111Z,62.50
2018-03-25T20:40:37.536Z,62.70
2018-03-25T20:43:05.103Z,62.50
2018-03-25T20:45:32.679Z,62.90
2018-03-25T20:48:00.291Z,63.10
2018-03-25T20:50:27.847Z,63.30
2018-03-25T20:52:56.204Z,63.40
2018-03-25T20:55:24.555Z,63.30
2018-03-25T20:57:52.882Z,63.40
2018-03-25T21:00:21.392Z,63.50
2018-03-25T21:02:48.986Z,63.30
2018-03-25T21:05:16.593Z,63.30
2018-03-25T21:07:44.172Z,63.20
2018-03-25T21:10:11.752Z,63.40
2018-03-25T21:12:39.342Z,63.30
2018-03-25T21:15:07.664Z,63.20
2018-03-25T21:17:35.250Z,63.10
2018-03-25T21:20:03.623Z,62.70
2018-03-25T21:22:31.951Z,62.50
2018-03-25T21:24:59.550Z,62.50
2018-03-25T21:27:27.157Z,62.70
2018-03-25T21:29:54.752Z,62.70
2018-03-25T21:32:22.378Z,62.50
2018-03-25T21:34:50.072Z,62.80
2018-03-25T21:37:17.669Z,62.90
2018-03-25T21:39:45.234Z,63.00
2018-03-25T21:42:12.866Z,62.90
2018-03-25T21:44:40.472Z,62.90
2018-03-25T21:47:08.908Z,64.30
2018-03-25T21:49:36.596Z,63.60
2018-03-25T21:52:04.742Z,64.10
2018-03-25T21:54:33.373Z,64.80
2018-03-25T21:57:00.952Z,64.70
2018-03-25T21:59:28.613Z,64.70
2018-03-25T22:01:56.171Z,64.90
2018-03-25T22:04:23.774Z,65.30
2018-03-25T22:06:51.396Z,65.40
2018-03-25T22:09:18.947Z,65.70
2018-03-25T22:11:46.532Z,65.70
2018-03-25T22:14:14.120Z,65.60
2018-03-25T22:16:41.755Z,65.60
2018-03-25T22:19:09.398Z,65.50
2018-03-25T22:21:36.976Z,65.80
2018-03-25T22:24:04.610Z,66.00
2018-03-25T22:26:32.303Z,65.90
2018-03-25T22:28:59.861Z,65.80
2018-03-25T22:31:27.520Z,65.90
2018-03-25T22:33:55.107Z,66.00
2018-03-25T22:36:22.745Z,66.20
2018-03-25T22:38:50.352Z,66.50
2018-03-25T22:41:17.923Z,66.60
2018-03-25T22:43:45.499Z,66.90
2018-03-25T22:46:13.122Z,67.40
2018-03-25T22:48:42.105Z,67.80
2018-03-25T22:51:09.726Z,67.70
2018-03-25T22:53:37.296Z,68.10
2018-03-25T22:56:04.861Z,68.40
2018-03-25T22:58:32.437Z,68.80
2018-03-25T23:01:00.048Z,68.90
2018-03-25T23:03:27.711Z,68.50
2018-03-25T23:05:55.267Z,67.60
2018-03-25T23:08:22.924Z,67.40
2018-03-25T23:10:50.564Z,67.10
2018-03-25T23:13:18.225Z,67.10
2018-03-25T23:15:45.827Z,67.10
2018-03-25T23:18:13.366Z,67.30
2018-03-25T23:20:40.930Z,67.40
2018-03-25T23:23:08.523Z,67.20
2018-03-25T23:25:36.150Z,67.20
2018-03-25T23:28:03.769Z,67.40
2018-03-25T23:30:31.347Z,67.40
2018-03-25T23:32:58.925Z,68.40
2018-03-25T23:35:26.617Z,68.20
2018-03-25T23:37:54.213Z,67.60
2018-03-25T23:40:21.830Z,67.60
2018-03-25T23:42:50.184Z,67.70
2018-03-25T23:45:17.842Z,67.60
2018-03-25T23:47:45.417Z,67.50
2018-03-25T23:50:13.775Z,68.30
2018-03-25T23:52:41.412Z,68.30
2018-03-25T23:55:08.957Z,68.70
2018-03-25T23:57:36.498Z,68.60
